createdAt,value
2018-10-02T00:00:58.045Z,8.20
2018-10-02T00:03:27.653Z,7.90
2018-10-02T00:05:57.184Z,8.47
2018-10-02T00:08:26.150Z,7.20
2018-10-02T00:11:00.408Z,8.30
2018-10-02T00:13:34.655Z,6.87
2018-10-02T00:16:03.668Z,12.30
2018-10-02T00:18:32.615Z,8.37
2018-10-02T00:21:01.600Z,9.43
2018-10-02T00:23:30.573Z,10.10
2018-10-02T00:25:59.544Z,9.17
2018-10-02T00:28:28.527Z,13.53
2018-10-02T00:30:57.495Z,10.17
2018-10-02T00:33:26.461Z,10.87
2018-10-02T00:35:55.500Z,17.83
2018-10-02T00:38:25.227Z,7.90
2018-10-02T00:40:54.236Z,15.03
2018-10-02T00:43:23.261Z,10.70
2018-10-02T00:45:52.254Z,11.47
2018-10-02T00:48:21.273Z,13.40
2018-10-02T00:50:50.289Z,13.13
2018-10-02T00:53:19.241Z,14.60
2018-10-02T00:55:48.227Z,12.00
2018-10-02T00:58:17.261Z,14.87
2018-10-02T01:00:46.284Z,10.90
2018-10-02T01:03:15.362Z,16.93
2018-10-02T01:05:44.560Z,16.90
2018-10-02T01:08:13.532Z,13.30
2018-10-02T01:10:42.497Z,12.20
2018-10-02T01:13:11.640Z,13.70
2018-10-02T01:15:40.649Z,13.90
2018-10-02T01:18:09.689Z,10.47
2018-10-02T01:20:38.706Z,12.57
2018-10-02T01:23:07.684Z,11.83
2018-10-02T01:25:39.292Z,13.97
2018-10-02T01:28:08.295Z,15.00
2018-10-02T01:30:37.256Z,17.93
2018-10-02T01:33:06.309Z,12.27
2018-10-02T01:35:36.224Z,13.27
2018-10-02T01:38:05.305Z,19.67
2018-10-02T01:40:34.267Z,16.33
2018-10-02T01:43:03.974Z,13.00
2018-10-02T01:45:32.946Z,16.13
2018-10-02T01:48:01.943Z,14.73
2018-10-02T01:50:30.943Z,18.17
2018-10-02T01:53:00.475Z,17.17
2018-10-02T01:55:29.443Z,19.67
2018-10-02T01:57:58.437Z,20.43
2018-10-02T02:00:28.320Z,15.07
2018-10-02T02:02:57.361Z,17.30
2018-10-02T02:05:26.312Z,17.10
2018-10-02T02:07:55.307Z,15.57
2018-10-02T02:10:24.284Z,24.07
2018-10-02T02:12:53.270Z,13.60
2018-10-02T02:15:22.264Z,14.30
2018-10-02T02:17:51.285Z,22.80
2018-10-02T02:20:20.257Z,21.53
2018-10-02T02:22:49.251Z,17.13
2018-10-02T02:25:18.208Z,17.27
2018-10-02T02:27:47.215Z,23.57
2018-10-02T02:30:16.208Z,16.60
2018-10-02T02:32:45.203Z,17.60
2018-10-02T02:35:14.264Z,17.23
2018-10-02T02:37:43.240Z,22.50
2018-10-02T02:40:12.237Z,20.00
2018-10-02T02:42:41.209Z,13.47
2018-10-02T02:45:10.168Z,15.53
2018-10-02T02:47:44.647Z,18.80
2018-10-02T02:50:18.893Z,17.47
2018-10-02T02:52:53.956Z,16.10
2018-10-02T02:55:22.918Z,20.47
2018-10-02T02:57:51.981Z,17.63
2018-10-02T03:00:20.976Z,17.17
2018-10-02T03:02:49.955Z,19.23
2018-10-02T03:05:18.917Z,16.30
2018-10-02T03:07:47.896Z,18.90
2018-10-02T03:10:16.879Z,17.10
2018-10-02T03:12:45.879Z,21.03
2018-10-02T03:15:14.873Z,18.60
2018-10-02T03:17:44.560Z,19.20
2018-10-02T03:20:13.552Z,15.03
2018-10-02T03:22:42.529Z,23.53
2018-10-02T03:25:11.489Z,19.00
2018-10-02T03:27:41.297Z,16.00
2018-10-02T03:30:10.260Z,20.37
2018-10-02T03:32:39.253Z,15.83
2018-10-02T03:35:08.315Z,21.17
2018-10-02T03:37:37.315Z,22.70
2018-10-02T03:40:07.322Z,22.53
2018-10-02T03:42:41.143Z,23.13
2018-10-02T03:45:15.502Z,21.37
2018-10-02T03:47:45.956Z,16.67
2018-10-02T03:50:14.926Z,17.73
2018-10-02T03:52:43.910Z,24.90
2018-10-02T03:55:12.892Z,20.67
2018-10-02T03:57:41.905Z,21.73
2018-10-02T04:00:12.076Z,19.90
2018-10-02T04:02:41.069Z,20.07
2018-10-02T04:05:16.381Z,20.63
2018-10-02T04:08:05.521Z,28.37
2018-10-02T04:10:34.473Z,23.23
2018-10-02T04:13:03.460Z,24.43
2018-10-02T04:15:32.503Z,20.97
2018-10-02T04:18:01.890Z,26.40
2018-10-02T04:20:31.072Z,23.50
2018-10-02T04:23:00.057Z,26.57
2018-10-02T04:25:29.724Z,20.80
2018-10-02T04:27:58.828Z,27.60
2018-10-02T04:33:02.932Z,32.87
2018-10-02T04:35:31.949Z,31.17
2018-10-02T04:38:00.926Z,32.17
2018-10-02T04:40:29.948Z,30.73
2018-10-02T04:42:58.940Z,29.70
2018-10-02T04:45:27.945Z,29.13
2018-10-02T04:47:56.921Z,29.60
2018-10-02T04:50:26.320Z,29.47
2018-10-02T04:52:55.699Z,27.63
2018-10-02T04:55:25.265Z,21.87
2018-10-02T04:57:54.273Z,34.63
2018-10-02T05:00:23.261Z,21.80
2018-10-02T05:02:52.247Z,26.27
2018-10-02T05:05:22.074Z,25.17
2018-10-02T05:07:51.261Z,25.23
2018-10-02T05:10:20.240Z,20.50
2018-10-02T05:12:49.226Z,22.37
2018-10-02T05:15:22.177Z,22.53
2018-10-02T05:17:51.148Z,20.33
2018-10-02T05:20:20.130Z,24.53
2018-10-02T05:22:49.082Z,28.23
2018-10-02T05:25:18.091Z,29.93
2018-10-02T05:27:47.111Z,25.90
2018-10-02T05:30:16.072Z,24.77
2018-10-02T05:32:45.038Z,32.93
2018-10-02T05:35:14.142Z,24.90
2018-10-02T05:37:43.086Z,26.83
2018-10-02T05:40:12.092Z,29.03
2018-10-02T05:42:41.101Z,25.47
2018-10-02T05:45:13.357Z,28.20
2018-10-02T05:47:42.362Z,28.03
2018-10-02T05:50:11.457Z,31.20
2018-10-02T05:52:41.492Z,28.67
2018-10-02T05:55:10.717Z,23.83
2018-10-02T05:57:39.721Z,25.30
2018-10-02T06:00:09.115Z,31.60
2018-10-02T06:02:38.108Z,33.30
2018-10-02T06:05:07.109Z,29.73
2018-10-02T06:07:36.259Z,36.00
2018-10-02T06:10:06.263Z,27.67
2018-10-02T06:12:35.249Z,31.13
2018-10-02T06:15:04.243Z,31.33
2018-10-02T06:17:36.141Z,35.13
2018-10-02T06:20:05.128Z,29.47
2018-10-02T06:22:34.090Z,29.43
2018-10-02T06:25:03.090Z,31.00
2018-10-02T06:27:32.072Z,26.17
2018-10-02T06:30:01.126Z,28.23
2018-10-02T06:32:30.252Z,23.10
2018-10-02T06:34:59.272Z,28.20
2018-10-02T06:37:28.289Z,24.30
2018-10-02T06:39:57.284Z,30.40
2018-10-02T06:42:26.262Z,27.10
2018-10-02T06:44:55.486Z,24.83
2018-10-02T06:47:24.525Z,31.43
2018-10-02T06:49:53.971Z,36.53
2018-10-02T06:52:23.177Z,28.67
2018-10-02T06:54:51.997Z,25.27
2018-10-02T06:57:22.649Z,25.20
2018-10-02T06:59:51.624Z,24.40
2018-10-02T07:02:20.598Z,26.53
2018-10-02T07:04:50.308Z,21.23
2018-10-02T07:07:19.309Z,24.13
2018-10-02T07:09:48.652Z,24.90
2018-10-02T07:12:23.130Z,23.70
2018-10-02T07:14:52.782Z,23.83
2018-10-02T07:17:22.465Z,22.60
2018-10-02T07:19:52.856Z,21.67
2018-10-02T07:22:21.857Z,20.50
2018-10-02T07:24:50.849Z,19.87
2018-10-02T07:27:20.372Z,27.10
2018-10-02T07:29:50.573Z,18.20
2018-10-02T07:32:19.530Z,19.27
2018-10-02T07:34:49.377Z,24.77
2018-10-02T07:37:18.352Z,17.50
2018-10-02T07:39:47.320Z,21.30
2018-10-02T07:42:16.345Z,20.17
2018-10-02T07:44:45.315Z,18.10
2018-10-02T07:47:14.324Z,17.10
2018-10-02T07:49:43.325Z,24.10
2018-10-02T07:52:12.439Z,19.43
2018-10-02T07:54:41.442Z,17.20
2018-10-02T07:57:10.758Z,18.43
2018-10-02T07:59:39.785Z,20.03
2018-10-02T08:02:08.836Z,22.03
2018-10-02T08:04:38.028Z,16.83
2018-10-02T08:07:06.993Z,19.30
2018-10-02T08:09:36.101Z,16.17
2018-10-02T08:12:05.148Z,23.13
2018-10-02T08:14:34.175Z,12.90
2018-10-02T08:17:03.124Z,12.40
2018-10-02T08:19:32.075Z,14.93
2018-10-02T08:22:01.049Z,15.70
2018-10-02T08:24:30.009Z,14.40
2018-10-02T08:26:58.955Z,16.10
2018-10-02T08:29:27.930Z,23.17
2018-10-02T08:31:56.849Z,16.27
2018-10-02T08:34:25.806Z,15.50
2018-10-02T08:36:55.558Z,17.60
2018-10-02T08:39:24.513Z,20.07
2018-10-02T08:41:53.575Z,15.47
2018-10-02T08:44:22.484Z,17.23
2018-10-02T08:46:51.492Z,15.87
2018-10-02T08:49:20.436Z,16.83
2018-10-02T08:51:49.672Z,15.57
2018-10-02T08:54:18.670Z,15.23
2018-10-02T08:56:47.796Z,13.93
2018-10-02T08:59:16.765Z,16.73
2018-10-02T09:01:46.284Z,14.30
2018-10-02T09:04:15.247Z,17.43
2018-10-02T09:06:50.080Z,18.43
2018-10-02T09:09:19.045Z,20.63
2018-10-02T09:11:48.145Z,16.03
2018-10-02T09:14:17.132Z,15.80
2018-10-02T09:16:46.117Z,23.67
2018-10-02T09:19:15.096Z,17.43
2018-10-02T09:21:44.094Z,16.73
2018-10-02T09:24:13.441Z,20.53
2018-10-02T09:26:42.773Z,16.13
2018-10-02T09:29:12.529Z,19.00
2018-10-02T09:31:46.889Z,20.30
2018-10-02T09:34:28.144Z,20.57
2018-10-02T09:37:09.360Z,17.80
2018-10-02T09:39:43.649Z,16.60
2018-10-02T09:42:17.904Z,19.00
2018-10-02T09:44:48.077Z,15.70
2018-10-02T09:47:17.062Z,17.80
2018-10-02T09:49:46.113Z,19.33
2018-10-02T09:52:15.053Z,29.20
2018-10-02T09:54:44.088Z,17.77
2018-10-02T09:57:13.782Z,22.00
2018-10-02T09:59:42.740Z,18.17
2018-10-02T10:02:15.924Z,21.60
2018-10-02T10:04:44.903Z,22.87
2018-10-02T10:07:13.895Z,17.57
2018-10-02T10:09:42.858Z,20.13
2018-10-02T10:12:11.848Z,17.73
2018-10-02T10:14:40.827Z,17.40
2018-10-02T10:17:09.928Z,16.07
2018-10-02T10:19:38.825Z,16.43
2018-10-02T10:22:07.961Z,15.90
2018-10-02T10:24:37.309Z,19.83
2018-10-02T10:27:06.451Z,16.63
2018-10-02T10:29:35.467Z,13.60
2018-10-02T10:32:04.449Z,14.77
2018-10-02T10:34:33.701Z,13.73
2018-10-02T10:37:02.658Z,16.07
2018-10-02T10:39:31.797Z,17.33
2018-10-02T10:42:01.937Z,16.83
2018-10-02T10:44:33.703Z,15.07
2018-10-02T10:47:02.766Z,13.00
2018-10-02T10:49:31.825Z,15.73
2018-10-02T10:52:00.774Z,11.57
2018-10-02T10:54:29.758Z,15.00
2018-10-02T10:56:59.056Z,11.17
2018-10-02T10:59:28.065Z,11.07
2018-10-02T11:01:57.628Z,10.23
2018-10-02T11:04:26.655Z,9.57
2018-10-02T11:06:55.669Z,13.17
2018-10-02T11:09:24.811Z,7.40
2018-10-02T11:11:55.690Z,11.03
2018-10-02T11:14:26.239Z,8.93
2018-10-02T11:16:55.192Z,7.63
2018-10-02T11:19:24.237Z,10.53
2018-10-02T11:21:53.692Z,6.73
2018-10-02T11:24:23.323Z,6.80
2018-10-02T11:26:52.288Z,7.30
2018-10-02T11:29:21.265Z,5.73
2018-10-02T11:31:50.267Z,8.47
2018-10-02T11:34:19.540Z,7.40
2018-10-02T11:36:48.896Z,6.10
2018-10-02T11:39:17.878Z,9.13
2018-10-02T11:41:47.013Z,9.43
2018-10-02T11:44:16.154Z,8.30
2018-10-02T11:46:44.971Z,7.13
2018-10-02T11:49:13.993Z,7.70
2018-10-02T11:51:43.805Z,6.50
2018-10-02T11:54:12.790Z,7.30
2018-10-02T11:56:41.733Z,7.73
2018-10-02T11:59:10.745Z,7.20
2018-10-02T12:01:39.754Z,6.20
2018-10-02T12:04:08.749Z,8.27
2018-10-02T12:06:37.866Z,6.30
2018-10-02T12:09:09.182Z,6.07
2018-10-02T12:11:39.823Z,7.80
2018-10-02T12:14:08.936Z,8.03
2018-10-02T12:16:38.181Z,10.23
2018-10-02T12:19:07.176Z,5.73
2018-10-02T12:21:36.161Z,10.20
2018-10-02T12:24:05.133Z,4.87
2018-10-02T12:26:34.338Z,6.80
2018-10-02T12:29:10.129Z,6.90
2018-10-02T12:31:39.159Z,4.67
2018-10-02T12:34:08.116Z,4.33
2018-10-02T12:36:37.165Z,4.80
2018-10-02T12:39:07.178Z,4.60
2018-10-02T12:41:39.832Z,4.73
2018-10-02T12:44:08.795Z,5.20
2018-10-02T12:46:37.790Z,4.73
2018-10-02T12:49:06.775Z,4.30
2018-10-02T12:51:35.748Z,3.83
2018-10-02T12:54:04.818Z,5.00
2018-10-02T12:56:33.796Z,5.90
2018-10-02T12:59:07.688Z,4.60
2018-10-02T13:01:36.650Z,3.97
2018-10-02T13:04:05.719Z,4.60
2018-10-02T13:06:34.935Z,3.60
2018-10-02T13:09:05.212Z,4.07
2018-10-02T13:11:34.197Z,5.83
2018-10-02T13:14:03.314Z,4.40
2018-10-02T13:16:32.349Z,4.00
2018-10-02T13:19:01.310Z,4.87
2018-10-02T13:21:30.313Z,3.60
2018-10-02T13:24:01.529Z,4.70
2018-10-02T13:26:30.508Z,3.30
2018-10-02T13:28:59.651Z,4.07
2018-10-02T13:31:28.736Z,5.40
2018-10-02T13:33:57.686Z,3.53
2018-10-02T13:36:26.762Z,4.63
2018-10-02T13:38:57.464Z,4.07
2018-10-02T13:41:26.444Z,3.00
2018-10-02T13:43:55.397Z,4.03
2018-10-02T13:46:24.388Z,6.90
2018-10-02T13:48:59.034Z,4.40
2018-10-02T13:51:28.139Z,3.40
2018-10-02T13:53:57.653Z,4.00
2018-10-02T13:56:26.643Z,3.63
2018-10-02T13:58:55.590Z,3.70
2018-10-02T14:01:24.611Z,3.50
2018-10-02T14:03:54.528Z,3.50
2018-10-02T14:06:26.126Z,5.13
2018-10-02T14:08:56.602Z,2.90
2018-10-02T14:11:25.674Z,3.30
2018-10-02T14:13:55.829Z,4.20
2018-10-02T14:16:24.865Z,3.40
2018-10-02T14:18:55.029Z,4.50
2018-10-02T14:21:25.194Z,3.27
2018-10-02T14:23:55.609Z,3.20
2018-10-02T14:26:25.474Z,3.30
2018-10-02T14:28:54.438Z,13.97
2018-10-02T14:31:24.352Z,3.53
2018-10-02T14:33:58.081Z,6.13
2018-10-02T14:36:27.156Z,4.40
2018-10-02T14:38:56.073Z,3.00
2018-10-02T14:41:25.129Z,3.10
2018-10-02T14:43:54.115Z,5.83
2018-10-02T14:46:23.142Z,2.87
2018-10-02T14:48:52.112Z,4.47
2018-10-02T14:51:21.105Z,2.93
2018-10-02T14:53:50.134Z,3.13
2018-10-02T14:56:19.314Z,3.37
2018-10-02T14:58:48.265Z,4.80
2018-10-02T15:01:17.368Z,2.80
2018-10-02T15:03:46.325Z,3.60
2018-10-02T15:06:15.365Z,5.80
2018-10-02T15:08:44.323Z,4.33
2018-10-02T15:11:13.319Z,3.47
2018-10-02T15:13:42.314Z,3.33
2018-10-02T15:16:11.289Z,3.10
2018-10-02T15:18:40.344Z,3.07
2018-10-02T15:21:15.174Z,4.07
2018-10-02T15:23:49.666Z,2.80
2018-10-02T15:26:24.744Z,3.10
2018-10-02T15:29:00.223Z,3.10
2018-10-02T15:31:35.387Z,3.10
2018-10-02T15:34:10.917Z,2.97
2018-10-02T15:36:45.437Z,2.90
2018-10-02T15:39:20.008Z,3.50
2018-10-02T15:41:54.836Z,3.63
2018-10-02T15:44:29.567Z,3.23
2018-10-02T15:47:04.472Z,3.00
2018-10-02T15:49:39.519Z,4.40
2018-10-02T15:52:14.080Z,5.77
2018-10-02T15:54:48.659Z,4.30
2018-10-02T15:57:23.764Z,3.97
2018-10-02T15:59:59.245Z,5.33
2018-10-02T16:02:34.154Z,7.70
2018-10-02T16:05:09.078Z,8.20
2018-10-02T16:07:43.672Z,10.87
2018-10-02T16:10:18.408Z,15.83
2018-10-02T16:12:53.213Z,14.37
2018-10-02T16:15:27.838Z,10.20
2018-10-02T16:18:02.516Z,11.23
2018-10-02T16:20:37.282Z,21.07
2018-10-02T16:23:11.961Z,15.73
2018-10-02T16:25:46.621Z,15.93
2018-10-02T16:28:21.685Z,15.87
2018-10-02T16:30:57.099Z,16.20
2018-10-02T16:33:31.804Z,20.80
2018-10-02T16:36:06.404Z,24.10
2018-10-02T16:38:41.125Z,24.50
2018-10-02T16:41:15.985Z,27.43
2018-10-02T16:43:51.009Z,24.70
2018-10-02T16:46:25.593Z,27.23
2018-10-02T16:49:00.564Z,31.33
2018-10-02T16:51:35.495Z,24.70
2018-10-02T16:54:10.231Z,27.53
2018-10-02T16:56:45.164Z,27.70
2018-10-02T16:59:19.986Z,29.83
2018-10-02T17:01:54.583Z,27.70
2018-10-02T17:04:29.390Z,30.30
2018-10-02T17:07:05.743Z,24.60
2018-10-02T17:09:40.503Z,33.50
2018-10-02T17:12:15.332Z,27.93
2018-10-02T17:14:49.923Z,34.13
2018-10-02T17:17:24.556Z,37.00
2018-10-02T17:19:59.337Z,30.87
2018-10-02T17:22:33.901Z,30.23
2018-10-02T17:25:08.606Z,34.33
2018-10-02T17:27:43.358Z,32.83
2018-10-02T17:30:18.129Z,34.03
2018-10-02T17:32:52.985Z,35.37
2018-10-02T17:35:27.635Z,35.00
2018-10-02T17:38:02.357Z,33.97
2018-10-02T17:40:37.089Z,37.20
2018-10-02T17:43:11.836Z,38.23
2018-10-02T17:45:46.571Z,35.63
2018-10-02T17:48:21.649Z,30.87
2018-10-02T17:50:56.280Z,33.77
2018-10-02T17:53:31.495Z,35.90
2018-10-02T17:56:06.166Z,36.47
2018-10-02T17:58:40.961Z,31.57
2018-10-02T18:01:15.915Z,31.57
2018-10-02T18:03:50.835Z,32.20
2018-10-02T18:06:25.688Z,30.13
2018-10-02T18:09:00.525Z,35.00
2018-10-02T18:11:35.301Z,29.97
2018-10-02T18:14:10.552Z,33.23
2018-10-02T18:16:45.432Z,31.83
2018-10-02T18:19:20.256Z,29.00
2018-10-02T18:21:54.888Z,37.10
2018-10-02T18:24:29.506Z,36.50
2018-10-02T18:27:04.778Z,32.40
2018-10-02T18:29:40.024Z,29.70
2018-10-02T18:32:15.177Z,34.80
2018-10-02T18:34:50.744Z,35.83
2018-10-02T18:37:26.834Z,28.80
2018-10-02T18:40:01.925Z,33.90
2018-10-02T18:42:36.380Z,34.80
2018-10-02T18:45:10.897Z,36.70
2018-10-02T18:47:45.639Z,28.37
2018-10-02T18:50:20.656Z,35.80
2018-10-02T18:52:55.577Z,31.57
2018-10-02T18:55:30.316Z,32.67
2018-10-02T18:58:05.247Z,36.93
2018-10-02T19:00:39.976Z,33.73
2018-10-02T19:03:14.597Z,32.87
2018-10-02T19:05:49.538Z,40.97
2018-10-02T19:08:29.778Z,28.70
2018-10-02T19:11:10.537Z,22.90
2018-10-02T19:13:45.785Z,27.90
2018-10-02T19:16:28.416Z,25.80
2018-10-02T19:19:03.558Z,27.63
2018-10-02T19:21:38.219Z,29.27
2018-10-02T19:24:13.093Z,27.03
2018-10-02T19:26:47.647Z,27.27
2018-10-02T19:29:22.348Z,31.13
2018-10-02T19:32:01.914Z,23.93
2018-10-02T19:34:37.000Z,31.23
2018-10-02T19:37:17.445Z,23.10
2018-10-02T19:39:52.571Z,28.00
2018-10-02T19:42:27.425Z,28.80
2018-10-02T19:45:07.570Z,21.63
2018-10-02T19:47:42.908Z,25.43
2018-10-02T19:50:12.260Z,22.17
2018-10-02T19:52:41.413Z,26.93
2018-10-02T19:55:12.440Z,29.00
2018-10-02T19:57:41.488Z,21.60
2018-10-02T20:00:10.520Z,19.77
2018-10-02T20:02:39.570Z,22.70
2018-10-02T20:05:09.072Z,20.00
2018-10-02T20:07:38.113Z,17.60
2018-10-02T20:10:07.208Z,15.10
2018-10-02T20:12:36.246Z,16.40
2018-10-02T20:15:05.301Z,18.70
2018-10-02T20:17:34.348Z,21.23
2018-10-02T20:20:03.383Z,30.97
2018-10-02T20:22:32.410Z,18.47
2018-10-02T20:25:01.442Z,19.80
2018-10-02T20:27:30.484Z,21.77
2018-10-02T20:29:59.501Z,22.40
2018-10-02T20:32:28.593Z,19.00
2018-10-02T20:34:57.592Z,19.40
2018-10-02T20:37:26.733Z,17.87
2018-10-02T20:39:55.740Z,22.37
2018-10-02T20:42:24.766Z,20.63
2018-10-02T20:44:53.780Z,20.23
2018-10-02T20:47:23.260Z,15.17
2018-10-02T20:49:52.282Z,16.53
2018-10-02T20:52:21.333Z,24.70
2018-10-02T20:54:50.339Z,14.60
2018-10-02T20:57:19.386Z,14.93
2018-10-02T20:59:48.429Z,20.47
2018-10-02T21:02:17.464Z,16.90
2018-10-02T21:04:46.553Z,13.40
2018-10-02T21:07:15.772Z,18.87
2018-10-02T21:09:44.775Z,18.13
2018-10-02T21:12:13.855Z,11.80
2018-10-02T21:14:42.898Z,15.03
2018-10-02T21:17:11.922Z,13.47
2018-10-02T21:19:40.929Z,17.33
2018-10-02T21:22:10.144Z,22.47
2018-10-02T21:24:40.317Z,22.00
2018-10-02T21:27:09.337Z,12.93
2018-10-02T21:29:38.332Z,23.20
2018-10-02T21:32:07.345Z,10.77
2018-10-02T21:34:36.344Z,15.13
2018-10-02T21:37:05.631Z,11.43
2018-10-02T21:39:34.824Z,13.63
2018-10-02T21:42:03.813Z,16.73
2018-10-02T21:44:32.812Z,15.37
2018-10-02T21:47:01.805Z,12.37
2018-10-02T21:49:30.815Z,13.53
2018-10-02T21:51:59.841Z,15.10
2018-10-02T21:54:28.902Z,16.63
2018-10-02T21:56:57.889Z,14.13
2018-10-02T21:59:26.902Z,17.00
2018-10-02T22:01:55.924Z,20.30
2018-10-02T22:04:24.984Z,17.07
2018-10-02T22:06:54.008Z,22.53
2018-10-02T22:09:24.166Z,12.47
2018-10-02T22:11:53.147Z,21.67
2018-10-02T22:14:22.191Z,18.47
2018-10-02T22:16:51.174Z,11.77
2018-10-02T22:19:21.245Z,22.67
2018-10-02T22:21:50.216Z,21.20
2018-10-02T22:24:19.403Z,14.60
2018-10-02T22:26:48.416Z,18.33
2018-10-02T22:29:17.414Z,17.50
2018-10-02T22:31:47.220Z,12.73
2018-10-02T22:34:16.247Z,21.33
2018-10-02T22:36:45.245Z,23.20
2018-10-02T22:39:14.313Z,15.13
2018-10-02T22:41:43.312Z,24.87
2018-10-02T22:44:51.210Z,18.17
2018-10-02T22:47:20.219Z,16.30
2018-10-02T22:49:49.284Z,11.30
2018-10-02T22:52:18.285Z,19.60
2018-10-02T22:54:47.287Z,16.80
2018-10-02T22:57:16.272Z,19.40
2018-10-02T22:59:45.333Z,17.57
2018-10-02T23:02:14.345Z,12.80
2018-10-02T23:04:43.384Z,23.10
2018-10-02T23:07:12.361Z,21.53
2018-10-02T23:09:41.404Z,24.87
2018-10-02T23:12:10.387Z,15.10
2018-10-02T23:14:39.471Z,29.13
2018-10-02T23:17:08.476Z,25.13
2018-10-02T23:19:38.576Z,15.73
2018-10-02T23:22:07.725Z,22.87
2018-10-02T23:24:36.739Z,21.00
2018-10-02T23:27:05.769Z,24.63
2018-10-02T23:29:34.754Z,19.60
2018-10-02T23:32:03.764Z,21.80
2018-10-02T23:34:32.759Z,18.07
2018-10-02T23:37:01.837Z,19.57
2018-10-02T23:39:30.817Z,16.37
2018-10-02T23:41:59.835Z,21.97
2018-10-02T23:44:28.967Z,14.80
2018-10-02T23:46:58.141Z,19.47
2018-10-02T23:49:27.226Z,14.57
2018-10-02T23:51:56.230Z,23.00
2018-10-02T23:54:25.213Z,14.97
2018-10-02T23:56:54.244Z,16.33
2018-10-02T23:59:23.388Z,16.93
